Time;durP1;ratioP1;P1;durP2;ratioP2;P2;SDS_P1;SDS_P2;PMS_P1;PMS_P2;Temp;Humidity;BMP_temperature;BMP_pressure;BME280_temperature;BME280_humidity;BME280_pressure;Samples;Min_cycle;Max_cycle;Signal;HPM_P1;HPM_P2
2022/03/05 00:00:26;;;;;;;37.60;27.80;;;;;;;;;;4974328;28;20194;-70
2022/03/05 00:02:53;;;;;;;32.03;24.10;;;;;;;;;;4977770;28;20050;-69
2022/03/05 00:05:21;;;;;;;34.40;26.42;;;;;;;;;;4992977;28;20050;-69
2022/03/05 00:07:48;;;;;;;36.67;27.17;;;;;;;;;;4993872;28;20146;-69
2022/03/05 00:10:19;;;;;;;31.17;24.30;;;;;;;;;;4990258;28;20051;-69
2022/03/05 00:12:49;;;;;;;29.58;23.67;;;;;;;;;;4992972;28;20549;-69
2022/03/05 00:15:18;;;;;;;29.42;22.92;;;;;;;;;;4993531;28;20058;-69
2022/03/05 00:17:47;;;;;;;34.67;24.50;;;;;;;;;;4993231;28;20125;-69
2022/03/05 00:20:15;;;;;;;31.70;23.30;;;;;;;;;;4994039;28;20046;-69
2022/03/05 00:22:44;;;;;;;30.67;22.48;;;;;;;;;;4992820;28;20432;-69
2022/03/05 00:25:12;;;;;;;29.13;22.38;;;;;;;;;;4993902;28;20046;-69
2022/03/05 00:27:41;;;;;;;24.52;19.77;;;;;;;;;;4993000;28;20065;-68
2022/03/05 00:30:09;;;;;;;31.77;23.70;;;;;;;;;;4993228;28;20157;-69
2022/03/05 00:32:38;;;;;;;27.55;22.35;;;;;;;;;;4995324;28;20077;-69
2022/03/05 00:35:06;;;;;;;25.98;22.75;;;;;;;;;;4997368;28;20456;-69
2022/03/05 00:37:34;;;;;;;35.97;25.85;;;;;;;;;;4995757;28;20133;-69
2022/03/05 00:40:02;;;;;;;28.50;23.02;;;;;;;;;;4980142;28;20113;-69
2022/03/05 00:42:30;;;;;;;32.28;23.70;;;;;;;;;;4996915;28;20054;-69
2022/03/05 00:44:59;;;;;;;35.28;23.77;;;;;;;;;;4996453;28;20046;-69
2022/03/05 00:47:26;;;;;;;29.58;22.85;;;;;;;;;;4995360;28;20042;-69
2022/03/05 00:49:54;;;;;;;31.15;22.90;;;;;;;;;;4996860;28;20163;-69
2022/03/05 00:52:22;;;;;;;29.55;22.70;;;;;;;;;;4995571;28;20081;-69
2022/03/05 00:54:51;;;;;;;30.70;23.00;;;;;;;;;;4995601;28;20050;-69
2022/03/05 00:57:18;;;;;;;26.35;22.17;;;;;;;;;;4995605;28;20577;-69
2022/03/05 00:59:45;;;;;;;29.10;20.30;;;;;;;;;;4995487;28;20046;-69
2022/03/05 01:02:13;;;;;;;26.27;20.30;;;;;;;;;;4981069;28;20102;-69
2022/03/05 01:04:41;;;;;;;26.70;21.60;;;;;;;;;;4993311;28;20058;-69
2022/03/05 01:07:09;;;;;;;25.80;19.23;;;;;;;;;;4990973;28;20046;-69
2022/03/05 01:09:37;;;;;;;22.08;17.25;;;;;;;;;;4975964;28;20051;-69
2022/03/05 01:12:06;;;;;;;25.55;19.58;;;;;;;;;;4976897;28;20086;-69
2022/03/05 01:14:34;;;;;;;27.08;19.92;;;;;;;;;;4978157;28;20502;-69
2022/03/05 01:17:04;;;;;;;24.77;18.67;;;;;;;;;;4977069;28;20051;-66
2022/03/05 01:19:33;;;;;;;27.95;21.88;;;;;;;;;;4975961;28;20047;-66
2022/03/05 01:22:00;;;;;;;23.10;20.35;;;;;;;;;;4988034;28;20046;-66
2022/03/05 01:24:27;;;;;;;26.52;20.73;;;;;;;;;;4996385;28;20054;-66
2022/03/05 01:26:56;;;;;;;33.45;20.58;;;;;;;;;;4979377;28;20097;-66
2022/03/05 01:29:23;;;;;;;27.13;21.08;;;;;;;;;;4976792;28;20050;-66
2022/03/05 01:31:50;;;;;;;28.23;20.48;;;;;;;;;;4977080;28;20150;-66
2022/03/05 01:34:18;;;;;;;26.58;20.80;;;;;;;;;;4975301;28;20418;-65
2022/03/05 01:36:46;;;;;;;29.13;21.52;;;;;;;;;;4977090;28;20482;-65
2022/03/05 01:39:15;;;;;;;29.55;21.85;;;;;;;;;;4976824;28;20085;-65
2022/03/05 01:41:46;;;;;;;27.33;21.10;;;;;;;;;;4976873;28;20046;-65
2022/03/05 01:44:14;;;;;;;26.73;21.30;;;;;;;;;;4984961;28;20050;-65
2022/03/05 01:46:42;;;;;;;22.45;18.48;;;;;;;;;;4987194;28;20078;-65
2022/03/05 01:49:11;;;;;;;24.67;20.15;;;;;;;;;;4975495;28;20072;-64
2022/03/05 01:51:40;;;;;;;27.23;19.95;;;;;;;;;;4985423;28;20054;-64
2022/03/05 01:54:07;;;;;;;25.38;19.98;;;;;;;;;;4995826;28;20050;-65
2022/03/05 01:56:37;;;;;;;29.23;19.25;;;;;;;;;;4996110;28;20050;-64
2022/03/05 01:59:07;;;;;;;27.20;19.13;;;;;;;;;;4995655;28;20129;-67
2022/03/05 02:01:34;;;;;;;23.77;19.38;;;;;;;;;;4981591;28;20462;-67
2022/03/05 02:04:03;;;;;;;26.73;18.45;;;;;;;;;;4991499;28;20410;-66
2022/03/05 02:06:31;;;;;;;24.20;17.73;;;;;;;;;;4981246;28;20080;-67
2022/03/05 02:08:59;;;;;;;22.90;17.95;;;;;;;;;;4994462;28;20060;-66
2022/03/05 02:11:27;;;;;;;26.92;19.30;;;;;;;;;;4992491;28;20138;-67
2022/03/05 02:13:55;;;;;;;26.80;18.83;;;;;;;;;;4995380;28;20054;-66
2022/03/05 02:16:24;;;;;;;27.20;18.77;;;;;;;;;;4995124;28;20100;-66
2022/03/05 02:18:55;;;;;;;25.10;20.38;;;;;;;;;;4995605;28;20090;-66
2022/03/05 02:21:23;;;;;;;24.50;18.67;;;;;;;;;;4978969;28;20054;-66
2022/03/05 02:23:51;;;;;;;25.88;18.88;;;;;;;;;;4978357;28;20100;-66
2022/03/05 02:26:18;;;;;;;27.73;20.98;;;;;;;;;;4990219;28;20473;-66
2022/03/05 02:28:46;;;;;;;29.55;21.67;;;;;;;;;;4975902;28;20074;-66
2022/03/05 02:31:16;;;;;;;31.70;23.02;;;;;;;;;;4975749;28;20058;-67
2022/03/05 02:33:44;;;;;;;34.90;24.73;;;;;;;;;;4975479;28;20529;-66
2022/03/05 02:36:12;;;;;;;28.00;22.10;;;;;;;;;;4992628;28;20089;-66
2022/03/05 02:38:39;;;;;;;29.73;22.83;;;;;;;;;;4993819;28;20096;-66
2022/03/05 02:41:07;;;;;;;32.78;24.38;;;;;;;;;;4993703;28;20051;-66
2022/03/05 02:43:34;;;;;;;34.15;23.58;;;;;;;;;;4994733;28;20109;-66
2022/03/05 02:46:02;;;;;;;31.58;23.95;;;;;;;;;;4993342;28;20521;-66
2022/03/05 02:48:33;;;;;;;32.47;22.38;;;;;;;;;;4993434;28;20066;-66
2022/03/05 02:51:02;;;;;;;27.85;21.80;;;;;;;;;;4994595;28;20410;-67
2022/03/05 02:53:31;;;;;;;30.27;22.98;;;;;;;;;;4993540;28;20047;-67
2022/03/05 02:55:59;;;;;;;25.73;18.98;;;;;;;;;;4994093;28;20056;-67
2022/03/05 02:58:26;;;;;;;29.30;19.58;;;;;;;;;;4974249;28;20510;-67
2022/03/05 03:00:54;;;;;;;27.70;20.70;;;;;;;;;;4980822;28;20141;-67
2022/03/05 03:03:22;;;;;;;27.98;20.65;;;;;;;;;;4974317;28;20128;-67
2022/03/05 03:05:51;;;;;;;25.88;19.30;;;;;;;;;;4976902;28;20089;-67
2022/03/05 03:08:18;;;;;;;26.23;20.38;;;;;;;;;;4992627;28;20131;-66
2022/03/05 03:10:46;;;;;;;25.45;20.48;;;;;;;;;;4994071;28;20084;-67
2022/03/05 03:13:13;;;;;;;26.40;20.23;;;;;;;;;;4994342;28;20125;-67
2022/03/05 03:15:41;;;;;;;23.60;20.75;;;;;;;;;;4991774;28;20050;-65
2022/03/05 03:18:09;;;;;;;29.00;21.73;;;;;;;;;;4993251;28;20421;-65
2022/03/05 03:20:36;;;;;;;30.85;22.60;;;;;;;;;;4994005;28;20046;-65
2022/03/05 03:23:04;;;;;;;31.25;24.50;;;;;;;;;;4993032;28;20101;-65
2022/03/05 03:25:31;;;;;;;34.00;24.08;;;;;;;;;;4976914;28;20046;-65
2022/03/05 03:27:58;;;;;;;34.03;24.00;;;;;;;;;;4992642;28;20057;-65
2022/03/05 03:30:26;;;;;;;34.65;24.75;;;;;;;;;;4994046;28;20133;-65
2022/03/05 03:32:53;;;;;;;28.73;21.52;;;;;;;;;;4994036;28;20070;-64
2022/03/05 03:35:20;;;;;;;29.17;23.25;;;;;;;;;;5009265;28;20078;-65
2022/03/05 03:37:48;;;;;;;35.70;27.02;;;;;;;;;;5008417;28;20146;-65
2022/03/05 03:40:16;;;;;;;34.08;27.50;;;;;;;;;;4994306;28;20053;-65
2022/03/05 03:42:46;;;;;;;36.13;27.65;;;;;;;;;;4987260;28;20569;-65
2022/03/05 03:45:13;;;;;;;30.67;24.20;;;;;;;;;;4975196;28;20097;-64
2022/03/05 03:47:43;;;;;;;33.92;26.30;;;;;;;;;;4974699;28;20046;-65
2022/03/05 03:50:13;;;;;;;32.60;27.80;;;;;;;;;;4974748;28;20490;-65
2022/03/05 03:52:41;;;;;;;35.80;25.50;;;;;;;;;;4974425;28;20478;-66
2022/03/05 03:55:12;;;;;;;30.17;25.40;;;;;;;;;;4974704;28;20051;-66
2022/03/05 03:57:40;;;;;;;32.97;27.13;;;;;;;;;;4973288;28;20075;-66
2022/03/05 04:00:13;;;;;;;32.10;25.13;;;;;;;;;;4974728;28;20169;-66
2022/03/05 04:02:41;;;;;;;34.65;25.92;;;;;;;;;;4974665;28;20142;-66
2022/03/05 04:05:10;;;;;;;29.52;23.02;;;;;;;;;;4982227;28;20506;-65
2022/03/05 04:10:24;;;;;;;30.08;24.50;;;;;;;;;;4994955;28;20129;-66
2022/03/05 04:12:53;;;;;;;33.90;23.63;;;;;;;;;;4978220;28;20050;-67
2022/03/05 04:15:20;;;;;;;32.45;23.73;;;;;;;;;;4978235;28;20134;-66
2022/03/05 04:17:47;;;;;;;34.63;26.38;;;;;;;;;;4993961;28;20046;-66
2022/03/05 04:20:15;;;;;;;29.77;23.85;;;;;;;;;;4997014;28;20042;-66
2022/03/05 04:22:43;;;;;;;34.78;24.17;;;;;;;;;;4997181;28;20129;-65
2022/03/05 04:25:11;;;;;;;36.75;22.80;;;;;;;;;;4997422;28;20057;-65
2022/03/05 04:27:39;;;;;;;32.95;21.63;;;;;;;;;;4998085;28;20124;-66
2022/03/05 04:30:08;;;;;;;27.20;21.23;;;;;;;;;;4997583;28;20058;-66
2022/03/05 04:32:38;;;;;;;29.38;22.75;;;;;;;;;;4995805;28;20054;-66
2022/03/05 04:35:08;;;;;;;32.00;21.75;;;;;;;;;;4995869;28;20047;-66
2022/03/05 04:37:35;;;;;;;27.80;21.55;;;;;;;;;;4995307;28;20054;-66
2022/03/05 04:40:04;;;;;;;27.15;21.70;;;;;;;;;;4984242;28;20051;-65
2022/03/05 04:42:32;;;;;;;31.42;24.83;;;;;;;;;;4978120;28;20055;-66
2022/03/05 04:44:59;;;;;;;27.38;21.80;;;;;;;;;;4978128;28;20165;-66
2022/03/05 04:47:26;;;;;;;27.08;20.85;;;;;;;;;;4995403;28;20054;-65
2022/03/05 04:49:54;;;;;;;30.90;22.88;;;;;;;;;;4989595;28;20061;-66
2022/03/05 04:52:22;;;;;;;29.88;22.80;;;;;;;;;;4996918;28;20133;-66
2022/03/05 04:54:50;;;;;;;37.13;23.08;;;;;;;;;;4992515;28;20509;-65
2022/03/05 04:57:19;;;;;;;32.33;23.40;;;;;;;;;;4990403;28;20049;-65
2022/03/05 04:59:47;;;;;;;37.67;27.40;;;;;;;;;;4992112;28;20597;-65
2022/03/05 05:02:15;;;;;;;31.42;25.17;;;;;;;;;;4979779;28;20054;-65
2022/03/05 05:04:43;;;;;;;37.50;27.20;;;;;;;;;;4981329;28;20054;-65
2022/03/05 05:07:11;;;;;;;37.63;27.58;;;;;;;;;;4980228;28;20055;-65
2022/03/05 05:09:40;;;;;;;35.15;26.27;;;;;;;;;;4982863;28;20046;-65
2022/03/05 05:12:08;;;;;;;36.80;26.63;;;;;;;;;;4979942;28;20043;-64
2022/03/05 05:14:36;;;;;;;33.75;27.02;;;;;;;;;;4987118;28;20133;-68
2022/03/05 05:17:04;;;;;;;35.80;24.90;;;;;;;;;;4980265;28;20058;-65
2022/03/05 05:19:33;;;;;;;34.90;25.52;;;;;;;;;;4984110;28;20513;-65
2022/03/05 05:22:03;;;;;;;37.00;26.25;;;;;;;;;;4989477;28;20105;-66
2022/03/05 05:24:33;;;;;;;36.97;27.52;;;;;;;;;;4989143;28;20065;-65
2022/03/05 05:27:01;;;;;;;41.10;27.55;;;;;;;;;;4979282;28;20054;-66
2022/03/05 05:29:29;;;;;;;49.33;30.08;;;;;;;;;;4984334;28;20057;-66
2022/03/05 05:32:12;;;;;;;48.50;28.63;;;;;;;;;;4978692;28;20050;-66
2022/03/05 05:34:41;;;;;;;44.63;29.48;;;;;;;;;;4987262;28;20049;-65
2022/03/05 05:37:14;;;;;;;38.22;28.73;;;;;;;;;;4979884;28;20053;-65
2022/03/05 05:39:42;;;;;;;43.45;29.60;;;;;;;;;;4983363;28;20051;-65
2022/03/05 05:42:09;;;;;;;45.42;32.30;;;;;;;;;;4981178;28;20074;-65
2022/03/05 05:44:37;;;;;;;48.60;28.75;;;;;;;;;;4989417;28;20042;-65
2022/03/05 05:47:08;;;;;;;44.15;29.45;;;;;;;;;;4979636;28;20065;-65
2022/03/05 05:49:36;;;;;;;40.95;29.38;;;;;;;;;;4988997;28;20050;-65
2022/03/05 05:52:05;;;;;;;39.03;27.95;;;;;;;;;;4987515;28;20445;-66
2022/03/05 05:54:33;;;;;;;43.55;30.35;;;;;;;;;;4984289;28;20062;-67
2022/03/05 05:57:02;;;;;;;40.90;28.85;;;;;;;;;;4987692;28;20042;-67
2022/03/05 05:59:30;;;;;;;45.58;28.23;;;;;;;;;;4985176;28;20637;-67
2022/03/05 06:01:59;;;;;;;43.95;30.40;;;;;;;;;;4978081;28;20522;-66
2022/03/05 06:04:27;;;;;;;40.53;28.92;;;;;;;;;;4980687;28;20105;-66
2022/03/05 06:06:56;;;;;;;41.47;27.95;;;;;;;;;;4972142;28;20046;-67
2022/03/05 06:09:24;;;;;;;50.92;29.73;;;;;;;;;;4979239;28;20133;-66
2022/03/05 06:11:51;;;;;;;48.47;31.75;;;;;;;;;;4979541;28;20050;-66
2022/03/05 06:14:19;;;;;;;46.47;30.23;;;;;;;;;;4989911;28;20126;-66
2022/03/05 06:16:47;;;;;;;52.35;31.40;;;;;;;;;;4982924;28;20097;-66
2022/03/05 06:19:16;;;;;;;46.50;30.85;;;;;;;;;;4983180;28;20134;-67
2022/03/05 06:21:43;;;;;;;49.45;30.50;;;;;;;;;;4981583;28;20054;-67
2022/03/05 06:24:12;;;;;;;44.33;30.00;;;;;;;;;;4982918;28;20051;-67
2022/03/05 06:26:40;;;;;;;39.00;28.98;;;;;;;;;;4978627;28;20062;-67
2022/03/05 06:29:10;;;;;;;44.55;30.05;;;;;;;;;;4978051;28;20569;-67
2022/03/05 06:31:39;;;;;;;46.17;31.58;;;;;;;;;;4978208;28;20057;-67
2022/03/05 06:34:07;;;;;;;49.65;29.88;;;;;;;;;;4979700;28;20053;-67
2022/03/05 06:36:36;;;;;;;65.43;39.92;;;;;;;;;;4983230;28;20134;-67
2022/03/05 06:39:04;;;;;;;85.57;44.72;;;;;;;;;;4985817;28;20050;-67
2022/03/05 06:41:31;;;;;;;81.28;46.63;;;;;;;;;;4986968;28;20101;-67
2022/03/05 06:43:59;;;;;;;77.10;45.83;;;;;;;;;;4990720;28;20454;-66
2022/03/05 06:46:26;;;;;;;74.97;42.25;;;;;;;;;;4981288;28;20058;-68
2022/03/05 06:48:53;;;;;;;74.10;41.10;;;;;;;;;;4986466;28;20486;-69
2022/03/05 06:51:21;;;;;;;71.60;40.67;;;;;;;;;;4980797;28;20050;-68
2022/03/05 06:53:49;;;;;;;63.75;38.88;;;;;;;;;;4981314;28;20047;-69
2022/03/05 06:56:17;;;;;;;68.18;36.90;;;;;;;;;;4982818;28;20129;-69
2022/03/05 06:58:45;;;;;;;73.78;39.13;;;;;;;;;;4978302;28;20058;-69
2022/03/05 07:01:14;;;;;;;66.35;42.00;;;;;;;;;;4981554;28;20066;-68
2022/03/05 07:03:43;;;;;;;70.07;38.30;;;;;;;;;;4977545;28;20509;-68
2022/03/05 07:06:11;;;;;;;64.18;36.72;;;;;;;;;;4981314;28;20057;-67
2022/03/05 07:08:38;;;;;;;66.40;35.88;;;;;;;;;;4987058;28;20453;-67
2022/03/05 07:11:08;;;;;;;68.70;36.72;;;;;;;;;;4985636;28;20038;-67
2022/03/05 07:13:36;;;;;;;57.05;33.63;;;;;;;;;;4986517;28;20109;-67
2022/03/05 07:16:05;;;;;;;85.50;45.10;;;;;;;;;;4974113;28;20466;-67
2022/03/05 07:18:33;;;;;;;54.97;33.92;;;;;;;;;;4978791;28;20054;-68
2022/03/05 07:21:01;;;;;;;56.53;36.20;;;;;;;;;;4991866;28;20038;-66
2022/03/05 07:23:28;;;;;;;56.67;34.45;;;;;;;;;;4975619;28;20101;-67
2022/03/05 07:25:55;;;;;;;47.42;30.75;;;;;;;;;;4984437;28;20050;-68
2022/03/05 07:28:22;;;;;;;54.85;30.83;;;;;;;;;;4991643;28;20126;-68
2022/03/05 07:30:51;;;;;;;47.45;31.92;;;;;;;;;;4992085;28;20153;-68
2022/03/05 07:33:20;;;;;;;35.75;28.73;;;;;;;;;;4991495;28;20137;-68
2022/03/05 07:35:47;;;;;;;44.20;29.30;;;;;;;;;;4992532;28;20034;-68
2022/03/05 07:38:14;;;;;;;35.78;28.50;;;;;;;;;;4993052;28;20054;-68
2022/03/05 07:40:42;;;;;;;39.20;28.25;;;;;;;;;;4989713;28;20050;-68
2022/03/05 07:43:09;;;;;;;43.85;32.15;;;;;;;;;;4975596;28;20066;-68
2022/03/05 07:45:36;;;;;;;49.08;31.85;;;;;;;;;;4990690;28;20074;-68
2022/03/05 07:48:04;;;;;;;56.72;34.83;;;;;;;;;;4998217;28;20057;-68
2022/03/05 07:50:31;;;;;;;66.88;37.88;;;;;;;;;;4976242;28;20058;-68
2022/03/05 07:52:59;;;;;;;49.65;32.80;;;;;;;;;;4990808;28;20043;-68
2022/03/05 07:55:27;;;;;;;49.20;31.08;;;;;;;;;;4976457;28;20058;-67
2022/03/05 07:57:56;;;;;;;46.72;32.00;;;;;;;;;;4991030;28;20078;-68
2022/03/05 08:00:24;;;;;;;47.60;31.67;;;;;;;;;;5003599;28;20050;-67
2022/03/05 08:02:52;;;;;;;43.30;29.17;;;;;;;;;;4989656;28;20409;-67
2022/03/05 08:05:20;;;;;;;38.13;27.25;;;;;;;;;;4991122;28;20069;-66
2022/03/05 08:07:48;;;;;;;46.10;27.75;;;;;;;;;;4989207;28;20074;-67
2022/03/05 08:10:16;;;;;;;35.88;22.13;;;;;;;;;;4992275;28;20078;-67
2022/03/05 08:12:44;;;;;;;31.48;23.30;;;;;;;;;;4991362;28;20108;-66
2022/03/05 08:15:12;;;;;;;33.95;21.60;;;;;;;;;;4988456;28;20042;-68
2022/03/05 08:17:51;;;;;;;26.08;17.25;;;;;;;;;;4987814;28;20112;-68
2022/03/05 08:20:19;;;;;;;25.30;16.05;;;;;;;;;;4989747;28;20046;-66
2022/03/05 08:22:46;;;;;;;23.02;16.33;;;;;;;;;;4990383;28;20046;-67
2022/03/05 08:25:14;;;;;;;23.73;16.85;;;;;;;;;;4990971;28;20485;-66
2022/03/05 08:27:41;;;;;;;81.68;53.13;;;;;;;;;;4989443;28;20125;-67
2022/03/05 08:30:10;;;;;;;28.45;20.92;;;;;;;;;;4991814;28;20047;-68
2022/03/05 08:32:38;;;;;;;24.80;15.35;;;;;;;;;;5007002;28;20070;-67
2022/03/05 08:35:06;;;;;;;20.38;14.27;;;;;;;;;;4990462;28;20038;-66
2022/03/05 08:37:35;;;;;;;22.27;14.65;;;;;;;;;;4991210;28;20050;-67
2022/03/05 08:40:04;;;;;;;23.05;14.57;;;;;;;;;;4985980;28;20050;-69
2022/03/05 08:42:33;;;;;;;19.55;15.25;;;;;;;;;;4989652;28;20181;-69
2022/03/05 08:45:01;;;;;;;19.58;15.57;;;;;;;;;;4991418;28;20046;-70
2022/03/05 08:47:28;;;;;;;23.33;15.02;;;;;;;;;;4989756;28;20109;-70
2022/03/05 08:49:56;;;;;;;20.67;15.80;;;;;;;;;;4991451;28;20061;-70
2022/03/05 08:52:23;;;;;;;25.00;15.35;;;;;;;;;;4990907;28;20059;-71
2022/03/05 08:54:51;;;;;;;20.67;14.75;;;;;;;;;;4996243;28;20046;-70
2022/03/05 08:57:19;;;;;;;21.80;15.63;;;;;;;;;;4994047;28;20084;-70
2022/03/05 08:59:46;;;;;;;23.17;15.73;;;;;;;;;;4991392;28;20390;-70
2022/03/05 09:02:14;;;;;;;21.65;15.48;;;;;;;;;;4978178;28;20078;-70
2022/03/05 09:04:41;;;;;;;21.30;14.98;;;;;;;;;;4997118;28;20109;-70
2022/03/05 09:07:09;;;;;;;18.95;15.15;;;;;;;;;;4975778;28;20118;-70
2022/03/05 09:09:36;;;;;;;20.20;14.82;;;;;;;;;;4992383;28;20109;-70
2022/03/05 09:12:06;;;;;;;24.70;14.52;;;;;;;;;;4985542;28;20047;-69
2022/03/05 09:14:34;;;;;;;21.40;15.00;;;;;;;;;;4993919;28;20046;-69
2022/03/05 09:17:04;;;;;;;19.27;14.55;;;;;;;;;;5001083;28;20057;-69
2022/03/05 09:19:33;;;;;;;17.85;13.98;;;;;;;;;;4992624;28;20140;-69
2022/03/05 09:22:01;;;;;;;21.63;14.73;;;;;;;;;;4994718;28;20070;-68
2022/03/05 09:24:28;;;;;;;21.80;14.52;;;;;;;;;;4993651;28;20062;-68
2022/03/05 09:26:55;;;;;;;21.25;15.20;;;;;;;;;;4994607;28;20104;-69
2022/03/05 09:29:25;;;;;;;20.67;14.98;;;;;;;;;;4978726;28;20065;-68
2022/03/05 09:31:53;;;;;;;25.15;15.63;;;;;;;;;;4978316;28;20497;-68
2022/03/05 09:34:20;;;;;;;20.92;14.52;;;;;;;;;;4993609;28;20125;-68
2022/03/05 09:36:47;;;;;;;21.63;15.40;;;;;;;;;;4992021;28;20054;-70
2022/03/05 09:39:15;;;;;;;20.45;15.60;;;;;;;;;;4971911;28;20051;-69
2022/03/05 09:41:42;;;;;;;23.23;15.18;;;;;;;;;;4991866;28;20181;-70
2022/03/05 09:44:10;;;;;;;26.73;15.52;;;;;;;;;;4977035;28;20066;-68
2022/03/05 09:46:41;;;;;;;18.30;14.45;;;;;;;;;;4993346;28;20490;-68
2022/03/05 09:49:09;;;;;;;23.23;16.08;;;;;;;;;;4992367;28;20150;-69
2022/03/05 09:51:37;;;;;;;17.70;14.82;;;;;;;;;;4992733;28;20038;-67
2022/03/05 09:54:04;;;;;;;22.80;15.43;;;;;;;;;;4992688;28;20104;-66
2022/03/05 09:56:32;;;;;;;19.95;14.52;;;;;;;;;;4992335;28;20108;-70
2022/03/05 09:59:00;;;;;;;23.48;14.73;;;;;;;;;;4990056;28;20410;-69
2022/03/05 10:01:28;;;;;;;19.30;15.80;;;;;;;;;;4992693;28;20046;-72
2022/03/05 10:03:56;;;;;;;21.75;16.83;;;;;;;;;;4992826;28;20074;-66
2022/03/05 10:06:28;;;;;;;23.63;15.05;;;;;;;;;;4976406;28;20125;-66
2022/03/05 10:09:21;;;;;;;20.45;15.43;;;;;;;;;;4990574;28;20070;-66
2022/03/05 10:12:25;;;;;;;20.02;15.75;;;;;;;;;;4990490;28;20062;-65
2022/03/05 10:15:08;;;;;;;17.50;11.93;;;;;;;;;;4980948;28;20051;-66
2022/03/05 10:18:15;;;;;;;25.73;12.80;;;;;;;;;;4984820;28;20470;-66
2022/03/05 10:21:09;;;;;;;20.27;12.02;;;;;;;;;;4978348;28;20239;-67
2022/03/05 10:23:39;;;;;;;16.08;12.20;;;;;;;;;;4986938;28;20502;-68
2022/03/05 10:26:07;;;;;;;18.48;13.63;;;;;;;;;;4991941;28;20105;-68
2022/03/05 10:28:50;;;;;;;20.63;15.57;;;;;;;;;;4994145;28;20129;-67
2022/03/05 10:31:19;;;;;;;21.85;15.65;;;;;;;;;;4994343;28;20050;-67
2022/03/05 10:33:48;;;;;;;21.75;15.30;;;;;;;;;;4993292;28;20054;-68
2022/03/05 10:36:23;;;;;;;19.00;15.07;;;;;;;;;;4994410;28;20046;-70
2022/03/05 10:39:10;;;;;;;20.50;13.75;;;;;;;;;;4994442;28;20125;-71
2022/03/05 10:41:40;;;;;;;20.85;14.02;;;;;;;;;;4993740;28;20046;-68
2022/03/05 10:44:13;;;;;;;17.70;13.50;;;;;;;;;;4992195;28;20049;-68
2022/03/05 10:46:41;;;;;;;20.55;13.30;;;;;;;;;;4992808;28;20059;-69
2022/03/05 10:49:18;;;;;;;19.35;13.43;;;;;;;;;;4989644;28;20056;-68
2022/03/05 10:51:47;;;;;;;23.77;14.43;;;;;;;;;;4994305;28;20129;-70
2022/03/05 10:54:27;;;;;;;19.73;14.18;;;;;;;;;;4994911;28;20125;-69
2022/03/05 10:57:21;;;;;;;18.98;13.13;;;;;;;;;;4988251;28;20129;-69
2022/03/05 10:59:53;;;;;;;20.05;13.65;;;;;;;;;;4968818;28;20098;-69
2022/03/05 11:02:22;;;;;;;17.75;11.57;;;;;;;;;;4991985;28;20453;-69
2022/03/05 11:04:50;;;;;;;17.20;11.23;;;;;;;;;;4992399;28;20093;-69
2022/03/05 11:07:19;;;;;;;16.73;10.65;;;;;;;;;;5009434;28;20398;-70
2022/03/05 11:09:49;;;;;;;15.20;10.75;;;;;;;;;;5008443;28;20043;-70
2022/03/05 11:12:21;;;;;;;13.38;9.60;;;;;;;;;;5008507;28;20054;-70
2022/03/05 11:14:51;;;;;;;15.07;9.98;;;;;;;;;;4994766;28;20410;-69
2022/03/05 11:17:19;;;;;;;19.05;9.48;;;;;;;;;;5003585;28;20058;-69
2022/03/05 11:19:48;;;;;;;12.02;8.73;;;;;;;;;;4993106;28;20043;-69
2022/03/05 11:22:15;;;;;;;14.45;9.40;;;;;;;;;;4979374;28;20134;-69
2022/03/05 11:24:44;;;;;;;14.23;9.60;;;;;;;;;;4991729;28;20055;-69
2022/03/05 11:27:15;;;;;;;12.65;8.85;;;;;;;;;;4983600;28;20712;-69
2022/03/05 11:29:54;;;;;;;23.08;16.38;;;;;;;;;;4991420;28;20125;-69
2022/03/05 11:32:24;;;;;;;13.93;9.52;;;;;;;;;;4978784;28;20181;-69
2022/03/05 11:34:53;;;;;;;14.55;9.88;;;;;;;;;;4988942;28;20073;-70
2022/03/05 11:37:32;;;;;;;12.88;9.45;;;;;;;;;;4983374;28;20090;-70
2022/03/05 11:40:05;;;;;;;13.60;9.25;;;;;;;;;;4974727;28;20082;-70
2022/03/05 11:42:35;;;;;;;16.17;11.00;;;;;;;;;;4981519;28;20145;-69
2022/03/05 11:45:32;;;;;;;13.98;10.02;;;;;;;;;;4974389;28;20063;-69
2022/03/05 11:48:22;;;;;;;13.98;9.60;;;;;;;;;;4975496;28;20042;-69
2022/03/05 11:50:58;;;;;;;19.23;11.63;;;;;;;;;;4974675;28;20498;-69
2022/03/05 11:53:26;;;;;;;11.63;8.77;;;;;;;;;;4984061;28;20054;-69
2022/03/05 11:55:53;;;;;;;13.73;8.38;;;;;;;;;;4974470;28;20070;-70
2022/03/05 11:58:24;;;;;;;13.45;8.75;;;;;;;;;;4974573;28;20130;-69
2022/03/05 12:00:54;;;;;;;14.80;8.93;;;;;;;;;;4974589;28;20118;-69
2022/03/05 12:03:42;;;;;;;22.48;10.63;;;;;;;;;;4986770;28;20051;-69
2022/03/05 12:06:11;;;;;;;12.82;8.65;;;;;;;;;;4973910;28;20057;-69
2022/03/05 12:08:39;;;;;;;12.55;7.90;;;;;;;;;;4991384;28;20563;-69
2022/03/05 12:11:09;;;;;;;11.10;7.35;;;;;;;;;;4975959;28;20055;-69
2022/03/05 12:13:54;;;;;;;9.65;8.00;;;;;;;;;;4974619;28;20055;-69
2022/03/05 12:16:24;;;;;;;13.40;7.82;;;;;;;;;;4974983;28;20062;-69
2022/03/05 12:18:54;;;;;;;17.10;9.18;;;;;;;;;;4993104;28;20077;-69
2022/03/05 12:21:33;;;;;;;10.98;8.27;;;;;;;;;;4991469;28;20054;-69
2022/03/05 12:24:07;;;;;;;9.68;7.45;;;;;;;;;;4993432;28;20057;-69
2022/03/05 12:26:41;;;;;;;11.18;8.23;;;;;;;;;;4992805;28;20050;-69
2022/03/05 12:29:10;;;;;;;12.52;9.15;;;;;;;;;;4996492;28;20050;-70
2022/03/05 12:31:44;;;;;;;11.68;7.10;;;;;;;;;;4995412;28;20082;-69
2022/03/05 12:34:12;;;;;;;11.63;6.55;;;;;;;;;;4998379;28;20050;-69
2022/03/05 12:36:44;;;;;;;12.18;7.82;;;;;;;;;;4983538;28;20592;-69
2022/03/05 12:39:14;;;;;;;14.68;7.50;;;;;;;;;;4995726;28;20070;-69
2022/03/05 12:41:43;;;;;;;13.68;7.93;;;;;;;;;;4996022;28;20046;-69
2022/03/05 12:44:14;;;;;;;9.07;7.70;;;;;;;;;;4996755;28;20089;-69
2022/03/05 12:46:43;;;;;;;12.38;7.97;;;;;;;;;;4993450;28;20552;-68
2022/03/05 12:49:11;;;;;;;10.40;7.53;;;;;;;;;;4994893;28;20133;-68
2022/03/05 12:51:38;;;;;;;8.57;7.40;;;;;;;;;;4991373;28;20047;-68
2022/03/05 12:54:06;;;;;;;9.45;6.78;;;;;;;;;;4996793;28;20050;-68
2022/03/05 12:56:34;;;;;;;13.05;6.55;;;;;;;;;;4994752;28;20046;-68
2022/03/05 12:59:04;;;;;;;8.77;7.05;;;;;;;;;;4996257;28;20088;-68
2022/03/05 13:01:32;;;;;;;11.73;7.20;;;;;;;;;;4997052;28;20050;-68
2022/03/05 13:04:00;;;;;;;12.68;7.68;;;;;;;;;;4980630;28;20059;-68
2022/03/05 13:06:27;;;;;;;11.00;7.35;;;;;;;;;;4976846;28;20059;-68
2022/03/05 13:08:57;;;;;;;8.10;6.68;;;;;;;;;;4977869;28;20094;-68
2022/03/05 13:11:49;;;;;;;6.28;5.63;;;;;;;;;;4992237;28;20057;-69
2022/03/05 13:14:20;;;;;;;9.55;6.88;;;;;;;;;;4987729;28;20047;-70
2022/03/05 13:16:52;;;;;;;10.57;7.63;;;;;;;;;;4993021;28;20058;-69
2022/03/05 13:19:19;;;;;;;9.73;7.15;;;;;;;;;;4996291;28;20141;-69
2022/03/05 13:21:49;;;;;;;12.32;8.90;;;;;;;;;;4994986;28;20140;-69
2022/03/05 13:24:18;;;;;;;9.45;7.65;;;;;;;;;;4996288;28;20137;-69
2022/03/05 13:26:48;;;;;;;10.27;8.20;;;;;;;;;;4989597;28;20418;-69
2022/03/05 13:29:16;;;;;;;10.82;7.90;;;;;;;;;;4995595;28;20445;-70
2022/03/05 13:31:44;;;;;;;10.55;7.38;;;;;;;;;;4995387;28;20097;-70
2022/03/05 13:34:26;;;;;;;9.45;6.63;;;;;;;;;;4994826;28;20062;-70
2022/03/05 13:36:56;;;;;;;9.80;6.85;;;;;;;;;;4987980;28;20046;-70
2022/03/05 13:39:26;;;;;;;9.20;7.07;;;;;;;;;;4992562;28;20073;-70
2022/03/05 13:41:57;;;;;;;8.45;6.82;;;;;;;;;;4994641;28;20050;-72
2022/03/05 13:44:29;;;;;;;16.35;8.50;;;;;;;;;;4992774;28;20092;-71
2022/03/05 13:46:58;;;;;;;9.93;7.15;;;;;;;;;;4994290;28;20047;-67
2022/03/05 13:49:28;;;;;;;13.73;8.68;;;;;;;;;;4988062;28;20054;-67
2022/03/05 13:51:57;;;;;;;8.43;6.53;;;;;;;;;;4995266;28;20130;-67
2022/03/05 13:54:32;;;;;;;8.90;6.43;;;;;;;;;;4988983;28;20084;-67
2022/03/05 13:57:00;;;;;;;11.10;6.85;;;;;;;;;;4986022;28;20134;-66
2022/03/05 13:59:44;;;;;;;11.30;6.35;;;;;;;;;;4991972;28;20400;-71
2022/03/05 14:02:13;;;;;;;9.48;7.15;;;;;;;;;;4992316;28;20050;-67
2022/03/05 14:05:06;;;;;;;10.88;7.80;;;;;;;;;;4994559;28;20081;-66
2022/03/05 14:07:59;;;;;;;10.27;7.25;;;;;;;;;;4995425;28;20066;-68
2022/03/05 14:10:27;;;;;;;10.02;6.20;;;;;;;;;;4988233;28;20137;-67
2022/03/05 14:12:57;;;;;;;7.35;6.07;;;;;;;;;;4991626;28;20121;-67
2022/03/05 14:15:28;;;;;;;8.02;6.18;;;;;;;;;;5006781;28;20078;-68
2022/03/05 14:18:14;;;;;;;9.07;6.75;;;;;;;;;;4982319;28;20129;-68
2022/03/05 14:20:48;;;;;;;7.95;5.95;;;;;;;;;;4988996;28;20043;-67
2022/03/05 14:23:20;;;;;;;10.13;5.82;;;;;;;;;;4985731;28;20051;-67
2022/03/05 14:25:49;;;;;;;7.13;5.75;;;;;;;;;;4991390;28;20058;-67
2022/03/05 14:28:24;;;;;;;7.60;5.60;;;;;;;;;;4980447;28;20077;-66
2022/03/05 14:30:53;;;;;;;7.30;5.40;;;;;;;;;;4986562;28;20453;-65
2022/03/05 14:33:20;;;;;;;8.95;6.72;;;;;;;;;;4978896;28;20054;-67
2022/03/05 14:35:49;;;;;;;7.65;5.95;;;;;;;;;;4978258;28;20047;-67
2022/03/05 14:38:18;;;;;;;9.27;6.63;;;;;;;;;;4988886;28;20047;-67